createdAt,value
2022-08-27T00:00:15.644Z,99.90
2022-08-27T00:02:42.425Z,99.90
2022-08-27T00:05:09.170Z,99.90
2022-08-27T00:07:35.942Z,99.90
2022-08-27T00:10:02.723Z,99.90
2022-08-27T00:12:30.354Z,99.90
2022-08-27T00:14:58.866Z,99.90
2022-08-27T00:17:25.612Z,99.90
2022-08-27T00:19:52.471Z,99.90
2022-08-27T00:22:19.225Z,99.90
2022-08-27T00:24:49.145Z,99.90
2022-08-27T00:27:16.045Z,99.90
2022-08-27T00:29:43.545Z,99.90
2022-08-27T00:32:10.346Z,99.90
2022-08-27T00:34:37.151Z,99.90
2022-08-27T00:37:03.957Z,99.90
2022-08-27T00:39:30.710Z,99.90
2022-08-27T00:41:57.510Z,99.90
2022-08-27T00:44:24.291Z,99.90
2022-08-27T00:46:51.024Z,99.90
2022-08-27T00:49:18.314Z,99.90
2022-08-27T00:51:45.059Z,99.90
2022-08-27T00:54:18.944Z,99.90
2022-08-27T00:56:51.431Z,99.90
2022-08-27T00:59:18.826Z,99.90
2022-08-27T01:02:04.137Z,99.90
2022-08-27T01:04:30.929Z,99.90
2022-08-27T01:06:57.659Z,99.90
2022-08-27T01:09:24.451Z,99.90
2022-08-27T01:11:51.230Z,99.90
2022-08-27T01:14:17.969Z,99.90
2022-08-27T01:16:44.987Z,99.90
2022-08-27T01:19:11.770Z,99.90
2022-08-27T01:21:38.568Z,99.90
2022-08-27T01:24:05.343Z,99.90
2022-08-27T01:26:32.069Z,99.90
2022-08-27T01:28:58.922Z,99.90
2022-08-27T01:31:25.706Z,99.90
2022-08-27T01:33:52.674Z,99.90
2022-08-27T01:36:19.427Z,99.90
2022-08-27T01:38:46.197Z,99.90
2022-08-27T01:41:15.377Z,99.90
2022-08-27T01:43:42.300Z,99.90
2022-08-27T01:46:09.090Z,99.90
2022-08-27T01:48:35.812Z,99.90
2022-08-27T01:51:02.598Z,99.90
2022-08-27T01:53:29.347Z,99.90
2022-08-27T01:55:56.122Z,99.90
2022-08-27T01:58:22.883Z,99.90
2022-08-27T02:00:51.932Z,99.90
2022-08-27T02:03:23.320Z,99.90
2022-08-27T02:05:50.067Z,99.90
2022-08-27T02:08:17.634Z,99.90
2022-08-27T02:10:44.436Z,99.90
2022-08-27T02:13:12.947Z,99.90
2022-08-27T02:15:39.679Z,99.90
2022-08-27T02:18:06.447Z,99.90
2022-08-27T02:20:33.194Z,99.90
2022-08-27T02:22:59.937Z,99.90
2022-08-27T02:25:27.755Z,99.90
2022-08-27T02:28:00.335Z,99.90
2022-08-27T02:30:27.600Z,99.90
2022-08-27T02:32:54.322Z,99.90
2022-08-27T02:35:21.176Z,99.90
2022-08-27T02:37:47.937Z,99.90
2022-08-27T02:40:17.352Z,99.90
2022-08-27T02:42:44.597Z,99.90
2022-08-27T02:45:11.328Z,99.90
2022-08-27T02:47:38.070Z,99.90
2022-08-27T02:50:04.932Z,99.90
2022-08-27T02:52:31.752Z,99.90
2022-08-27T02:54:58.508Z,99.90
2022-08-27T02:57:25.480Z,99.90
2022-08-27T02:59:52.644Z,99.90
2022-08-27T03:02:19.574Z,99.90
2022-08-27T03:04:46.391Z,99.90
2022-08-27T03:07:18.784Z,99.90
2022-08-27T03:09:45.907Z,99.90
2022-08-27T03:12:12.959Z,99.90
2022-08-27T03:14:39.723Z,99.90
2022-08-27T03:17:25.310Z,99.90
2022-08-27T03:19:52.150Z,99.90
2022-08-27T03:22:18.903Z,99.90
2022-08-27T03:24:46.207Z,99.90
2022-08-27T03:27:12.942Z,99.90
2022-08-27T03:29:39.753Z,99.90
2022-08-27T03:32:06.985Z,99.90
2022-08-27T03:34:33.737Z,99.90
2022-08-27T03:37:01.493Z,99.90
2022-08-27T03:39:28.277Z,99.90
2022-08-27T03:41:55.844Z,99.90
2022-08-27T03:44:22.631Z,99.90
2022-08-27T03:46:49.390Z,99.90
2022-08-27T03:49:16.171Z,99.90
2022-08-27T03:51:47.174Z,99.90
2022-08-27T03:54:13.909Z,99.90
2022-08-27T03:56:41.695Z,99.90
2022-08-27T03:59:08.572Z,99.90
2022-08-27T04:01:36.118Z,99.90
2022-08-27T04:04:02.948Z,99.90
2022-08-27T04:06:29.791Z,99.90
2022-08-27T04:08:56.535Z,99.90
2022-08-27T04:11:23.461Z,99.90
2022-08-27T04:13:50.279Z,99.90
2022-08-27T04:16:17.145Z,99.90
2022-08-27T04:18:43.958Z,99.90
2022-08-27T04:21:11.412Z,99.90
2022-08-27T04:23:38.687Z,99.90
2022-08-27T04:26:05.664Z,99.90
2022-08-27T04:28:35.244Z,99.90
2022-08-27T04:31:05.532Z,99.90
2022-08-27T04:33:32.547Z,99.90
2022-08-27T04:35:59.288Z,99.90
2022-08-27T04:38:26.041Z,99.90
2022-08-27T04:41:11.397Z,99.90
2022-08-27T04:43:38.225Z,99.90
2022-08-27T04:46:05.088Z,99.90
2022-08-27T04:48:31.891Z,99.90
2022-08-27T04:50:58.621Z,99.90
2022-08-27T04:53:25.458Z,99.90
2022-08-27T04:55:52.233Z,99.90
2022-08-27T04:58:19.045Z,99.90
2022-08-27T05:00:46.346Z,99.90
2022-08-27T05:03:13.387Z,99.90
2022-08-27T05:05:42.696Z,99.90
2022-08-27T05:08:10.797Z,99.90
2022-08-27T05:10:37.682Z,99.90
2022-08-27T05:13:04.472Z,99.90
2022-08-27T05:15:31.371Z,99.90
2022-08-27T05:18:00.749Z,99.90
2022-08-27T05:20:27.617Z,99.90
2022-08-27T05:22:54.715Z,99.90
2022-08-27T05:25:21.600Z,99.90
2022-08-27T05:27:48.339Z,99.90
2022-08-27T05:30:15.110Z,99.90
2022-08-27T05:32:42.159Z,99.90
2022-08-27T05:35:11.107Z,99.90
2022-08-27T05:37:40.732Z,99.90
2022-08-27T05:40:07.551Z,99.90
2022-08-27T05:42:34.502Z,99.90
2022-08-27T05:45:01.262Z,99.90
2022-08-27T05:47:28.190Z,99.90
2022-08-27T05:49:55.086Z,99.90
2022-08-27T05:52:22.005Z,99.90
2022-08-27T05:54:48.777Z,99.90
2022-08-27T05:57:15.510Z,99.90
2022-08-27T06:00:01.261Z,99.90
2022-08-27T06:02:28.487Z,99.90
2022-08-27T06:04:55.451Z,99.90
2022-08-27T06:07:22.297Z,99.90
2022-08-27T06:09:49.076Z,99.90
2022-08-27T06:12:15.878Z,99.90
2022-08-27T06:14:42.600Z,99.90
2022-08-27T06:17:09.330Z,99.90
2022-08-27T06:19:36.588Z,99.90
2022-08-27T06:22:10.458Z,99.90
2022-08-27T06:24:39.069Z,99.90
2022-08-27T06:27:06.152Z,99.90
2022-08-27T06:29:35.399Z,99.90
2022-08-27T06:32:02.237Z,99.90
2022-08-27T06:34:29.061Z,99.90
2022-08-27T06:36:55.811Z,99.90
2022-08-27T06:39:22.585Z,99.90
2022-08-27T06:41:53.122Z,99.90
2022-08-27T06:44:22.172Z,99.90
2022-08-27T06:46:48.896Z,99.90
2022-08-27T06:49:15.699Z,99.90
2022-08-27T06:51:42.744Z,99.90
2022-08-27T06:54:09.597Z,99.90
2022-08-27T06:56:36.462Z,99.90
2022-08-27T06:59:03.200Z,99.90
2022-08-27T07:01:31.764Z,99.90
2022-08-27T07:03:58.635Z,99.90
2022-08-27T07:06:25.397Z,99.90
2022-08-27T07:08:53.173Z,99.90
2022-08-27T07:11:20.553Z,99.90
2022-08-27T07:13:47.506Z,99.90
2022-08-27T07:16:14.436Z,99.90
2022-08-27T07:18:41.287Z,99.90
2022-08-27T07:21:08.174Z,99.90
2022-08-27T07:23:34.929Z,99.90
2022-08-27T07:26:01.688Z,99.90
2022-08-27T07:28:28.470Z,99.90
2022-08-27T07:30:55.295Z,99.90
2022-08-27T07:33:22.209Z,99.90
2022-08-27T07:35:49.550Z,99.90
2022-08-27T07:38:16.425Z,99.90
2022-08-27T07:40:43.200Z,99.90
2022-08-27T07:43:28.422Z,99.90
2022-08-27T07:45:57.253Z,99.90
2022-08-27T07:48:24.102Z,99.90
2022-08-27T07:50:51.457Z,99.90
2022-08-27T07:53:18.239Z,99.90
2022-08-27T07:55:45.537Z,99.90
2022-08-27T07:58:16.804Z,99.90
2022-08-27T08:00:45.240Z,99.90
2022-08-27T08:03:12.002Z,99.90
2022-08-27T08:05:38.778Z,99.90
2022-08-27T08:08:05.599Z,99.90
2022-08-27T08:10:35.518Z,99.90
2022-08-27T08:13:02.423Z,99.90
2022-08-27T08:15:29.526Z,99.90
2022-08-27T08:17:56.263Z,99.90
2022-08-27T08:20:35.900Z,99.90
2022-08-27T08:23:10.558Z,99.90
2022-08-27T08:25:38.731Z,99.90
2022-08-27T08:28:05.638Z,99.90
2022-08-27T08:30:35.552Z,99.90
2022-08-27T08:33:02.483Z,99.90
2022-08-27T08:35:35.073Z,99.90
2022-08-27T08:38:07.335Z,99.90
2022-08-27T08:40:34.229Z,99.90
2022-08-27T08:43:01.140Z,99.90
2022-08-27T08:45:28.215Z,99.90
2022-08-27T08:47:56.650Z,99.90
2022-08-27T08:50:23.397Z,99.90
2022-08-27T08:52:50.161Z,99.90
2022-08-27T08:55:16.930Z,99.90
2022-08-27T08:57:43.706Z,99.90
2022-08-27T09:00:13.587Z,99.90
2022-08-27T09:02:40.414Z,99.90
2022-08-27T09:05:08.859Z,99.90
2022-08-27T09:07:35.646Z,99.90
2022-08-27T09:10:03.601Z,99.90
2022-08-27T09:12:30.830Z,99.90
2022-08-27T09:14:57.630Z,99.90
2022-08-27T09:17:24.403Z,99.90
2022-08-27T09:19:52.610Z,99.90
2022-08-27T09:22:19.724Z,99.90
2022-08-27T09:24:46.498Z,99.90
2022-08-27T09:27:14.856Z,99.90
2022-08-27T09:29:41.584Z,99.90
2022-08-27T09:32:08.687Z,99.40
2022-08-27T09:34:35.539Z,99.60
2022-08-27T09:37:02.368Z,99.40
2022-08-27T09:39:29.379Z,99.40
2022-08-27T09:41:56.185Z,99.60
2022-08-27T09:44:23.176Z,99.00
2022-08-27T09:46:49.922Z,99.10
2022-08-27T09:49:17.555Z,99.10
2022-08-27T09:51:44.287Z,98.50
2022-08-27T09:54:11.031Z,98.70
2022-08-27T09:56:37.870Z,98.80
2022-08-27T09:59:04.662Z,98.90
2022-08-27T10:01:31.434Z,98.90
2022-08-27T10:03:58.295Z,99.10
2022-08-27T10:06:25.066Z,98.60
2022-08-27T10:08:51.827Z,98.90
2022-08-27T10:11:18.583Z,98.20
2022-08-27T10:13:45.425Z,98.20
2022-08-27T10:16:12.204Z,98.50
2022-08-27T10:18:41.385Z,98.10
2022-08-27T10:21:08.160Z,97.30
2022-08-27T10:23:35.438Z,97.20
2022-08-27T10:26:02.183Z,96.70
2022-08-27T10:28:28.947Z,96.70
2022-08-27T10:30:55.732Z,96.70
2022-08-27T10:33:23.651Z,96.70
2022-08-27T10:35:54.637Z,96.70
2022-08-27T10:38:21.971Z,96.40
2022-08-27T10:40:48.707Z,95.70
2022-08-27T10:43:15.557Z,94.30
2022-08-27T10:45:42.882Z,95.20
2022-08-27T10:48:09.921Z,95.50
2022-08-27T10:50:36.861Z,95.50
2022-08-27T10:53:03.720Z,95.20
2022-08-27T10:55:30.496Z,96.10
2022-08-27T10:58:01.014Z,95.90
2022-08-27T11:00:27.984Z,94.80
2022-08-27T11:02:55.218Z,94.90
2022-08-27T11:05:22.003Z,94.60
2022-08-27T11:07:48.784Z,95.10
2022-08-27T11:10:15.703Z,94.50
2022-08-27T11:12:47.925Z,94.60
2022-08-27T11:15:14.656Z,93.50
2022-08-27T11:17:41.445Z,93.90
2022-08-27T11:20:09.147Z,93.00
2022-08-27T11:22:36.105Z,92.40
2022-08-27T11:25:02.927Z,92.40
2022-08-27T11:27:38.744Z,92.60
2022-08-27T11:30:05.514Z,92.90
2022-08-27T11:32:32.265Z,92.90
2022-08-27T11:34:59.047Z,93.40
2022-08-27T11:37:25.862Z,92.60
2022-08-27T11:39:52.748Z,92.80
2022-08-27T11:42:19.537Z,91.90
2022-08-27T11:44:46.844Z,91.90
2022-08-27T11:47:13.678Z,91.70
2022-08-27T11:49:40.410Z,91.50
2022-08-27T11:52:09.974Z,92.10
2022-08-27T11:54:36.834Z,92.00
2022-08-27T11:57:03.560Z,91.50
2022-08-27T11:59:30.329Z,90.90
2022-08-27T12:01:57.321Z,91.10
2022-08-27T12:04:24.867Z,90.90
2022-08-27T12:06:51.872Z,90.40
2022-08-27T12:09:19.496Z,91.00
2022-08-27T12:11:46.272Z,90.70
2022-08-27T12:14:14.807Z,90.80
2022-08-27T12:16:41.965Z,90.70
2022-08-27T12:19:09.020Z,90.10
2022-08-27T12:21:35.832Z,89.30
2022-08-27T12:24:02.636Z,90.00
2022-08-27T12:26:29.455Z,90.20
2022-08-27T12:28:56.189Z,90.50
2022-08-27T12:31:23.040Z,90.70
2022-08-27T12:33:49.895Z,90.60
2022-08-27T12:36:21.238Z,88.70
2022-08-27T12:38:54.995Z,88.90
2022-08-27T12:41:21.716Z,90.20
2022-08-27T12:43:48.512Z,88.60
2022-08-27T12:46:15.919Z,87.40
2022-08-27T12:48:42.801Z,86.30
2022-08-27T12:51:09.577Z,86.60
2022-08-27T12:53:36.399Z,86.50
2022-08-27T12:56:03.105Z,87.20
2022-08-27T12:58:30.155Z,84.90
2022-08-27T13:00:58.846Z,84.90
2022-08-27T13:03:26.194Z,85.30
2022-08-27T13:05:57.480Z,85.30
2022-08-27T13:08:24.295Z,86.40
2022-08-27T13:10:51.085Z,87.00
2022-08-27T13:13:17.915Z,86.60
2022-08-27T13:15:44.856Z,87.10
2022-08-27T13:18:12.174Z,87.20
2022-08-27T13:20:39.281Z,87.60
2022-08-27T13:23:06.052Z,87.20
2022-08-27T13:25:33.369Z,85.50
2022-08-27T13:28:03.197Z,86.00
2022-08-27T13:30:35.673Z,85.40
2022-08-27T13:33:03.252Z,85.30
2022-08-27T13:35:32.465Z,84.80
2022-08-27T13:37:59.241Z,86.40
2022-08-27T13:40:28.841Z,86.10
2022-08-27T13:42:55.739Z,87.20
2022-08-27T13:45:22.560Z,86.80
2022-08-27T13:47:49.360Z,87.60
2022-08-27T13:50:16.125Z,86.90
2022-08-27T13:53:01.662Z,85.00
2022-08-27T13:55:28.658Z,85.10
2022-08-27T13:57:55.755Z,84.20
2022-08-27T14:00:22.615Z,85.70
2022-08-27T14:02:55.948Z,86.20
2022-08-27T14:05:23.365Z,87.10
2022-08-27T14:07:50.184Z,86.50
2022-08-27T14:10:17.855Z,87.40
2022-08-27T14:12:44.619Z,86.60
2022-08-27T14:15:11.371Z,86.50
2022-08-27T14:17:38.300Z,85.80
2022-08-27T14:20:05.217Z,85.00
2022-08-27T14:22:34.353Z,84.40
2022-08-27T14:25:01.204Z,85.00
2022-08-27T14:27:28.026Z,85.70
2022-08-27T14:29:55.595Z,85.50
2022-08-27T14:32:22.460Z,85.50
2022-08-27T14:34:49.588Z,84.20
2022-08-27T14:37:16.319Z,83.50
2022-08-27T14:39:43.535Z,84.00
2022-08-27T14:42:11.809Z,84.80
2022-08-27T14:44:38.715Z,85.20
2022-08-27T14:47:05.514Z,85.60
2022-08-27T14:49:36.528Z,85.80
2022-08-27T14:52:03.320Z,85.70
2022-08-27T14:54:33.362Z,85.70
2022-08-27T14:57:00.493Z,86.30
2022-08-27T14:59:27.315Z,86.60
2022-08-27T15:01:54.547Z,86.40
2022-08-27T15:04:21.426Z,85.20
2022-08-27T15:06:48.447Z,85.90
2022-08-27T15:09:15.299Z,84.70
2022-08-27T15:11:42.081Z,84.50
2022-08-27T15:14:08.835Z,85.30
2022-08-27T15:16:35.677Z,84.60
2022-08-27T15:19:02.415Z,84.60
2022-08-27T15:21:29.163Z,84.70
2022-08-27T15:23:55.938Z,84.30
2022-08-27T15:26:23.143Z,85.00
2022-08-27T15:28:50.580Z,84.20
2022-08-27T15:31:17.537Z,83.90
2022-08-27T15:33:45.556Z,83.30
2022-08-27T15:36:12.471Z,82.70
2022-08-27T15:38:39.229Z,82.50
2022-08-27T15:41:06.013Z,83.50
2022-08-27T15:43:32.760Z,83.70
2022-08-27T15:45:59.612Z,83.50
2022-08-27T15:48:26.424Z,83.40
2022-08-27T15:50:53.244Z,83.90
2022-08-27T15:53:19.947Z,83.70
2022-08-27T15:55:46.765Z,84.20
2022-08-27T15:58:13.688Z,83.90
2022-08-27T16:00:40.429Z,84.50
2022-08-27T16:03:07.232Z,84.00
2022-08-27T16:05:34.020Z,83.70
2022-08-27T16:08:00.755Z,83.80
2022-08-27T16:10:27.935Z,83.00
2022-08-27T16:12:54.705Z,84.10
2022-08-27T16:15:21.440Z,83.60
2022-08-27T16:17:48.212Z,84.00
2022-08-27T16:20:15.063Z,84.00
2022-08-27T16:22:42.067Z,84.80
2022-08-27T16:25:08.781Z,84.20
2022-08-27T16:27:36.032Z,84.60
2022-08-27T16:30:02.802Z,83.70
2022-08-27T16:32:29.541Z,81.70
2022-08-27T16:34:56.318Z,82.30
2022-08-27T16:37:23.054Z,81.30
2022-08-27T16:39:49.763Z,79.70
2022-08-27T16:42:16.472Z,79.80
2022-08-27T16:44:43.174Z,80.10
2022-08-27T16:47:09.902Z,80.20
2022-08-27T16:49:55.549Z,79.80
2022-08-27T16:52:23.853Z,78.60
2022-08-27T16:54:50.634Z,79.00
2022-08-27T16:57:17.345Z,78.30
2022-08-27T16:59:44.119Z,78.70
2022-08-27T17:02:10.920Z,79.00
2022-08-27T17:04:42.093Z,80.20
2022-08-27T17:07:09.892Z,80.90
2022-08-27T17:09:36.602Z,82.00
2022-08-27T17:12:05.165Z,82.40
2022-08-27T17:14:31.876Z,82.70
2022-08-27T17:16:58.619Z,84.10
2022-08-27T17:19:26.211Z,84.90
2022-08-27T17:21:54.965Z,86.20
2022-08-27T17:24:21.852Z,86.50
2022-08-27T17:26:48.571Z,86.10
2022-08-27T17:29:15.329Z,86.20
2022-08-27T17:31:42.049Z,85.40
2022-08-27T17:34:08.792Z,85.40
2022-08-27T17:36:35.508Z,85.00
2022-08-27T17:39:05.576Z,85.20
2022-08-27T17:41:34.135Z,85.40
2022-08-27T17:44:01.237Z,86.10
2022-08-27T17:46:28.053Z,85.90
2022-08-27T17:48:54.784Z,86.10
2022-08-27T17:51:21.519Z,86.50
2022-08-27T17:53:48.284Z,87.20
2022-08-27T17:56:15.022Z,87.70
2022-08-27T17:58:41.722Z,88.50
2022-08-27T18:01:11.443Z,89.00
2022-08-27T18:03:47.511Z,90.00
2022-08-27T18:06:14.674Z,90.20
2022-08-27T18:08:41.364Z,90.50
2022-08-27T18:11:08.082Z,90.80
2022-08-27T18:13:37.288Z,91.00
2022-08-27T18:16:04.102Z,91.30
2022-08-27T18:18:30.809Z,91.30
2022-08-27T18:20:57.937Z,91.40
2022-08-27T18:23:24.717Z,91.60
2022-08-27T18:25:52.085Z,91.80
2022-08-27T18:28:18.850Z,91.90
2022-08-27T18:30:45.761Z,92.00
2022-08-27T18:33:12.863Z,92.20
2022-08-27T18:35:39.772Z,92.20
2022-08-27T18:38:06.639Z,92.40
2022-08-27T18:40:33.428Z,92.60
2022-08-27T18:43:00.246Z,92.80
2022-08-27T18:45:26.994Z,92.80
2022-08-27T18:47:55.369Z,92.90
2022-08-27T18:50:22.205Z,93.20
2022-08-27T18:52:48.905Z,93.30
2022-08-27T18:55:15.636Z,93.50
2022-08-27T18:57:43.051Z,93.70
2022-08-27T19:00:09.789Z,93.90
2022-08-27T19:02:36.754Z,94.00
2022-08-27T19:05:04.900Z,94.00
2022-08-27T19:07:32.192Z,94.30
2022-08-27T19:09:58.919Z,94.30
2022-08-27T19:12:25.647Z,94.40
2022-08-27T19:14:52.369Z,94.60
2022-08-27T19:17:19.090Z,94.60
2022-08-27T19:19:45.782Z,95.00
2022-08-27T19:22:12.477Z,95.30
2022-08-27T19:24:40.106Z,95.30
2022-08-27T19:27:07.180Z,95.60
2022-08-27T19:29:33.873Z,95.70
2022-08-27T19:32:00.624Z,95.80
2022-08-27T19:34:27.384Z,95.80
2022-08-27T19:36:54.079Z,96.10
2022-08-27T19:39:20.831Z,96.10
2022-08-27T19:41:47.568Z,96.10
2022-08-27T19:44:14.292Z,96.00
2022-08-27T19:46:41.176Z,96.20
2022-08-27T19:49:07.946Z,96.00
2022-08-27T19:51:34.689Z,96.10
2022-08-27T19:54:01.453Z,96.20
2022-08-27T19:56:28.900Z,96.20
2022-08-27T19:58:59.715Z,96.20
2022-08-27T20:01:30.318Z,96.30
2022-08-27T20:03:57.138Z,96.30
2022-08-27T20:06:26.113Z,96.30
2022-08-27T20:08:52.826Z,96.40
2022-08-27T20:11:22.091Z,96.40
2022-08-27T20:13:50.644Z,96.40
2022-08-27T20:16:17.682Z,96.40
2022-08-27T20:18:44.954Z,96.60
2022-08-27T20:21:11.740Z,96.50
2022-08-27T20:23:38.491Z,96.60
2022-08-27T20:26:05.195Z,96.70
2022-08-27T20:28:40.278Z,96.70
2022-08-27T20:31:07.414Z,96.70
2022-08-27T20:33:34.254Z,96.80
2022-08-27T20:36:01.500Z,96.80
2022-08-27T20:38:28.230Z,96.90
2022-08-27T20:40:54.955Z,97.00
2022-08-27T20:43:21.751Z,97.00
2022-08-27T20:45:48.532Z,97.00
2022-08-27T20:48:15.267Z,97.20
2022-08-27T20:50:42.097Z,97.10
2022-08-27T20:53:09.109Z,97.20
2022-08-27T20:55:35.860Z,97.20
2022-08-27T20:58:21.384Z,97.40
2022-08-27T21:00:48.341Z,97.30
2022-08-27T21:03:15.212Z,97.80
2022-08-27T21:05:43.656Z,97.60
2022-08-27T21:08:10.453Z,97.80
2022-08-27T21:10:37.314Z,97.80
2022-08-27T21:13:05.727Z,97.90
2022-08-27T21:15:33.451Z,97.90
2022-08-27T21:18:00.323Z,98.10
2022-08-27T21:20:27.039Z,98.20
2022-08-27T21:22:56.045Z,98.30
2022-08-27T21:25:24.650Z,98.50
2022-08-27T21:27:51.369Z,98.60
2022-08-27T21:30:18.103Z,98.70
2022-08-27T21:32:44.851Z,98.70
2022-08-27T21:35:11.755Z,98.70
2022-08-27T21:37:38.528Z,98.80
2022-08-27T21:40:05.448Z,98.80
2022-08-27T21:42:32.171Z,98.90
2022-08-27T21:44:58.871Z,99.00
2022-08-27T21:47:25.716Z,99.00
2022-08-27T21:49:52.585Z,99.10
2022-08-27T21:52:19.356Z,99.40
2022-08-27T21:54:46.061Z,99.20
2022-08-27T21:57:15.539Z,99.30
2022-08-27T21:59:42.319Z,99.60
2022-08-27T22:02:28.776Z,99.40
2022-08-27T22:04:55.866Z,99.60
2022-08-27T22:07:24.321Z,99.60
2022-08-27T22:09:51.077Z,99.60
2022-08-27T22:12:17.831Z,99.70
2022-08-27T22:14:44.536Z,99.90
2022-08-27T22:17:15.605Z,99.90
2022-08-27T22:19:42.390Z,99.90
2022-08-27T22:22:09.146Z,99.90
2022-08-27T22:24:35.870Z,99.90
2022-08-27T22:27:02.641Z,99.90
2022-08-27T22:29:30.692Z,99.90
2022-08-27T22:31:57.649Z,99.90
2022-08-27T22:34:24.389Z,99.90
2022-08-27T22:36:51.141Z,99.90
2022-08-27T22:39:17.837Z,99.90
2022-08-27T22:41:45.297Z,99.90
2022-08-27T22:44:13.396Z,99.90
2022-08-27T22:46:40.292Z,99.90
2022-08-27T22:49:07.079Z,99.90
2022-08-27T22:51:33.788Z,99.90
2022-08-27T22:54:00.635Z,99.90
2022-08-27T22:56:27.333Z,99.90
2022-08-27T22:58:54.037Z,99.90
2022-08-27T23:01:20.798Z,99.90
2022-08-27T23:03:47.885Z,99.90
2022-08-27T23:06:14.648Z,99.90
2022-08-27T23:08:41.387Z,99.90
2022-08-27T23:11:08.095Z,99.90
2022-08-27T23:13:34.801Z,99.90
2022-08-27T23:16:01.756Z,99.90
2022-08-27T23:18:28.579Z,99.90
2022-08-27T23:20:55.634Z,99.90
2022-08-27T23:23:22.382Z,99.90
2022-08-27T23:26:11.224Z,99.90
2022-08-27T23:28:37.995Z,99.90
2022-08-27T23:31:04.772Z,99.90
2022-08-27T23:33:31.506Z,99.90
2022-08-27T23:35:58.254Z,99.90
2022-08-27T23:38:24.982Z,99.90
2022-08-27T23:40:52.337Z,99.90
2022-08-27T23:43:19.141Z,99.90
2022-08-27T23:45:46.056Z,99.90
2022-08-27T23:48:13.056Z,99.90
2022-08-27T23:50:40.801Z,99.90
2022-08-27T23:53:07.617Z,99.90
2022-08-27T23:55:34.358Z,99.90
2022-08-27T23:58:01.460Z,99.90
